Springersville, Indiana
Current Conditions -  °F | °C
As of 5:15 PM on Sunday 25 Jan 2015 (Local Time) from KI67 Reporting Station
Overcast Overcast  
Wind Chill: 37°   Ceiling: 2300
Heat Index: 37°   Visibility: 5mi
Dew Point: 36°   Wind: 0mph
Humidity: 93%   Direction: NA
Pressure: 29.66"   Gusts: NA
Location:  39.6926°N, 84.9821°W
Report Text: KI67 252215Z AUTO 00000KT 5SM BKN023 OVC030 03/02 A2966 RMK AO1 P0001
Loading
Personal Weather Stations






























Interactive Weather Map New forecast layout! Learn more

10-Day Weather Forecast

Advertisements
Track Severe Weather on mobile